sensor_id;sensor_type;location;lat;lon;timestamp;pressure;altitude;pressure_sealevel;temperature;humidity
33191;BME280;19554;42.652;23.364;2023-03-01T00:00:37;95131.66;;;5.99;84.99
33191;BME280;19554;42.652;23.364;2023-03-01T00:03:02;95115.63;;;6.10;84.99
33191;BME280;19554;42.652;23.364;2023-03-01T00:05:28;95109.59;;;6.15;84.71
33191;BME280;19554;42.652;23.364;2023-03-01T00:07:53;95114.84;;;6.10;84.35
33191;BME280;19554;42.652;23.364;2023-03-01T00:10:19;95106.50;;;6.23;84.40
33191;BME280;19554;42.652;23.364;2023-03-01T00:12:44;95109.22;;;6.28;84.10
33191;BME280;19554;42.652;23.364;2023-03-01T00:15:10;95022.56;;;5.63;83.62
33191;BME280;19554;42.652;23.364;2023-03-01T00:17:36;95102.06;;;6.07;84.43
33191;BME280;19554;42.652;23.364;2023-03-01T00:20:02;95101.38;;;5.94;85.03
33191;BME280;19554;42.652;23.364;2023-03-01T00:22:27;95104.41;;;6.03;84.85
33191;BME280;19554;42.652;23.364;2023-03-01T00:24:53;95089.19;;;5.93;85.03
33191;BME280;19554;42.652;23.364;2023-03-01T00:27:19;95089.75;;;5.96;85.16
33191;BME280;19554;42.652;23.364;2023-03-01T00:29:44;94993.53;;;5.29;85.52
33191;BME280;19554;42.652;23.364;2023-03-01T00:32:10;95077.19;;;5.91;85.97
33191;BME280;19554;42.652;23.364;2023-03-01T00:34:35;94954.75;;;5.18;85.16
33191;BME280;19554;42.652;23.364;2023-03-01T00:37:00;95085.75;;;5.93;85.45
33191;BME280;19554;42.652;23.364;2023-03-01T00:39:31;95073.88;;;5.96;85.29
33191;BME280;19554;42.652;23.364;2023-03-01T00:41:57;95061.63;;;5.94;85.01
33191;BME280;19554;42.652;23.364;2023-03-01T00:44:22;95073.88;;;5.96;84.68
33191;BME280;19554;42.652;23.364;2023-03-01T00:46:48;95064.66;;;6.03;84.74
33191;BME280;19554;42.652;23.364;2023-03-01T00:49:13;95047.41;;;6.01;84.37
33191;BME280;19554;42.652;23.364;2023-03-01T00:51:39;95074.16;;;5.99;84.18
33191;BME280;19554;42.652;23.364;2023-03-01T00:54:08;95073.41;;;6.04;84.38
33191;BME280;19554;42.652;23.364;2023-03-01T00:56:34;95055.22;;;5.90;84.47
33191;BME280;19554;42.652;23.364;2023-03-01T00:59:00;94969.81;;;5.34;84.71
33191;BME280;19554;42.652;23.364;2023-03-01T01:01:28;94993.31;;;5.53;84.81
33191;BME280;19554;42.652;23.364;2023-03-01T01:03:59;95064.94;;;6.02;84.25
33191;BME280;19554;42.652;23.364;2023-03-01T01:06:29;95070.41;;;6.17;83.87
33191;BME280;19554;42.652;23.364;2023-03-01T01:08:55;95064.78;;;6.13;83.18
33191;BME280;19554;42.652;23.364;2023-03-01T01:11:23;94956.31;;;5.14;83.88
33191;BME280;19554;42.652;23.364;2023-03-01T01:13:49;95067.91;;;5.88;84.16
33191;BME280;19554;42.652;23.364;2023-03-01T01:16:15;95066.56;;;5.86;84.23
33191;BME280;19554;42.652;23.364;2023-03-01T01:18:42;95069.25;;;5.69;85.29
33191;BME280;19554;42.652;23.364;2023-03-01T01:21:10;95066.72;;;5.57;85.58
33191;BME280;19554;42.652;23.364;2023-03-01T01:23:37;95079.28;;;5.67;85.64
33191;BME280;19554;42.652;23.364;2023-03-01T01:26:05;95060.59;;;5.57;85.54
33191;BME280;19554;42.652;23.364;2023-03-01T01:28:31;95053.16;;;5.54;85.52
33191;BME280;19554;42.652;23.364;2023-03-01T01:30:56;95046.97;;;5.65;85.04
33191;BME280;19554;42.652;23.364;2023-03-01T01:33:21;95071.03;;;5.63;84.77
33191;BME280;19554;42.652;23.364;2023-03-01T01:35:46;95073.00;;;5.73;84.78
33191;BME280;19554;42.652;23.364;2023-03-01T01:38:12;95036.94;;;5.28;84.84
33191;BME280;19554;42.652;23.364;2023-03-01T01:40:48;95082.53;;;5.52;84.94
33191;BME280;19554;42.652;23.364;2023-03-01T01:43:38;95085.56;;;5.61;85.14
33191;BME280;19554;42.652;23.364;2023-03-01T01:48:43;95038.94;;;5.21;85.09
33191;BME280;19554;42.652;23.364;2023-03-01T01:51:13;95078.59;;;5.55;84.94
33191;BME280;19554;42.652;23.364;2023-03-01T01:53:41;95057.97;;;5.57;84.64
33191;BME280;19554;42.652;23.364;2023-03-01T01:56:09;95051.88;;;5.56;84.12
33191;BME280;19554;42.652;23.364;2023-03-01T01:58:36;95074.06;;;5.72;83.75
33191;BME280;19554;42.652;23.364;2023-03-01T02:01:03;95040.25;;;5.57;83.09
33191;BME280;19554;42.652;23.364;2023-03-01T02:03:31;95077.25;;;5.74;83.03
33191;BME280;19554;42.652;23.364;2023-03-01T02:08:55;95033.34;;;5.56;82.43
33191;BME280;19554;42.652;23.364;2023-03-01T02:11:22;95032.88;;;5.42;82.61
33191;BME280;19554;42.652;23.364;2023-03-01T02:13:48;95003.94;;;5.14;82.77
33191;BME280;19554;42.652;23.364;2023-03-01T02:16:15;94993.75;;;5.06;82.95
33191;BME280;19554;42.652;23.364;2023-03-01T02:18:42;94969.63;;;5.02;82.82
33191;BME280;19554;42.652;23.364;2023-03-01T02:21:42;95051.94;;;5.61;82.32
33191;BME280;19554;42.652;23.364;2023-03-01T02:24:25;94988.81;;;5.31;81.76
33191;BME280;19554;42.652;23.364;2023-03-01T02:26:54;95060.19;;;5.65;81.71
33191;BME280;19554;42.652;23.364;2023-03-01T02:29:22;95061.22;;;5.64;82.18
33191;BME280;19554;42.652;23.364;2023-03-01T02:31:49;95062.84;;;5.65;82.42
33191;BME280;19554;42.652;23.364;2023-03-01T02:34:22;95015.75;;;5.28;82.45
33191;BME280;19554;42.652;23.364;2023-03-01T02:36:59;95064.31;;;5.56;82.85
33191;BME280;19554;42.652;23.364;2023-03-01T02:40:18;95075.94;;;5.55;82.87
33191;BME280;19554;42.652;23.364;2023-03-01T02:42:22;95072.38;;;5.44;83.76
33191;BME280;19554;42.652;23.364;2023-03-01T02:44:49;95058.56;;;5.42;84.14
33191;BME280;19554;42.652;23.364;2023-03-01T02:47:15;95012.50;;;5.04;84.71
33191;BME280;19554;42.652;23.364;2023-03-01T02:49:40;95066.38;;;5.54;84.24
33191;BME280;19554;42.652;23.364;2023-03-01T02:57:38;95057.38;;;5.72;83.05
33191;BME280;19554;42.652;23.364;2023-03-01T03:00:07;95008.53;;;5.40;82.90
33191;BME280;19554;42.652;23.364;2023-03-01T03:02:33;95063.03;;;5.58;83.85
33191;BME280;19554;42.652;23.364;2023-03-01T03:05:08;95063.81;;;5.59;83.80
33191;BME280;19554;42.652;23.364;2023-03-01T03:07:35;95050.03;;;5.57;83.32
33191;BME280;19554;42.652;23.364;2023-03-01T03:10:03;95004.16;;;5.12;83.95
33191;BME280;19554;42.652;23.364;2023-03-01T03:12:29;95064.31;;;5.56;84.02
33191;BME280;19554;42.652;23.364;2023-03-01T03:14:54;95062.56;;;5.44;84.30
33191;BME280;19554;42.652;23.364;2023-03-01T03:17:19;95066.91;;;5.51;84.47
33191;BME280;19554;42.652;23.364;2023-03-01T03:19:45;95051.06;;;5.17;84.65
33191;BME280;19554;42.652;23.364;2023-03-01T03:22:11;95076.69;;;5.33;85.18
33191;BME280;19554;42.652;23.364;2023-03-01T03:24:37;95078.16;;;5.24;85.44
33191;BME280;19554;42.652;23.364;2023-03-01T03:27:04;95037.91;;;5.05;85.75
33191;BME280;19554;42.652;23.364;2023-03-01T03:29:30;95081.53;;;5.19;86.03
33191;BME280;19554;42.652;23.364;2023-03-01T03:31:55;95063.09;;;5.08;86.37
33191;BME280;19554;42.652;23.364;2023-03-01T03:34:20;95036.81;;;4.84;86.58
33191;BME280;19554;42.652;23.364;2023-03-01T03:36:46;95040.81;;;5.04;86.16
33191;BME280;19554;42.652;23.364;2023-03-01T03:39:11;95069.66;;;5.22;85.99
33191;BME280;19554;42.652;23.364;2023-03-01T03:41:37;95067.09;;;5.27;85.37
33191;BME280;19554;42.652;23.364;2023-03-01T03:46:46;95056.75;;;5.09;85.22
33191;BME280;19554;42.652;23.364;2023-03-01T03:49:11;95082.50;;;5.30;85.43
33191;BME280;19554;42.652;23.364;2023-03-01T03:51:37;94989.94;;;4.63;85.16
33191;BME280;19554;42.652;23.364;2023-03-01T03:54:02;95077.38;;;5.23;85.41
33191;BME280;19554;42.652;23.364;2023-03-01T03:56:28;95078.78;;;5.31;84.89
33191;BME280;19554;42.652;23.364;2023-03-01T03:58:53;95072.84;;;5.41;85.06
33191;BME280;19554;42.652;23.364;2023-03-01T04:01:37;95070.59;;;5.33;84.83
33191;BME280;19554;42.652;23.364;2023-03-01T04:04:02;95044.81;;;5.23;84.30
33191;BME280;19554;42.652;23.364;2023-03-01T04:06:29;95078.38;;;5.39;84.21
33191;BME280;19554;42.652;23.364;2023-03-01T04:08:54;95075.72;;;5.39;83.92
33191;BME280;19554;42.652;23.364;2023-03-01T04:11:23;95071.69;;;5.54;83.53
33191;BME280;19554;42.652;23.364;2023-03-01T04:13:55;95076.50;;;5.57;83.33
33191;BME280;19554;42.652;23.364;2023-03-01T04:16:21;95035.19;;;5.17;83.41
33191;BME280;19554;42.652;23.364;2023-03-01T04:18:47;95084.69;;;5.55;83.20
33191;BME280;19554;42.652;23.364;2023-03-01T04:21:13;94980.88;;;4.92;83.00
33191;BME280;19554;42.652;23.364;2023-03-01T04:23:39;95081.25;;;5.55;83.15
33191;BME280;19554;42.652;23.364;2023-03-01T04:26:06;95091.59;;;5.39;83.20
33191;BME280;19554;42.652;23.364;2023-03-01T04:28:39;95079.75;;;5.42;84.08
33191;BME280;19554;42.652;23.364;2023-03-01T04:31:13;95034.72;;;5.20;83.41
33191;BME280;19554;42.652;23.364;2023-03-01T04:33:54;95090.78;;;5.56;83.04
33191;BME280;19554;42.652;23.364;2023-03-01T04:36:25;95073.06;;;5.39;83.12
33191;BME280;19554;42.652;23.364;2023-03-01T04:38:51;95079.09;;;5.52;83.33
33191;BME280;19554;42.652;23.364;2023-03-01T04:41:19;95075.72;;;5.39;83.53
33191;BME280;19554;42.652;23.364;2023-03-01T04:43:45;95043.19;;;5.22;83.44
33191;BME280;19554;42.652;23.364;2023-03-01T04:46:13;95027.66;;;5.09;83.61
33191;BME280;19554;42.652;23.364;2023-03-01T04:48:41;95087.78;;;5.30;83.94
33191;BME280;19554;42.652;23.364;2023-03-01T04:51:07;95081.03;;;5.39;84.14
33191;BME280;19554;42.652;23.364;2023-03-01T04:53:34;95040.97;;;5.14;84.11
33191;BME280;19554;42.652;23.364;2023-03-01T04:56:01;95029.28;;;5.10;84.40
33191;BME280;19554;42.652;23.364;2023-03-01T04:58:27;95066.91;;;5.51;83.86
33191;BME280;19554;42.652;23.364;2023-03-01T05:00:53;95051.19;;;5.44;83.55
33191;BME280;19554;42.652;23.364;2023-03-01T05:03:19;95044.31;;;5.26;83.54
33191;BME280;19554;42.652;23.364;2023-03-01T05:05:46;95065.94;;;5.40;83.40
33191;BME280;19554;42.652;23.364;2023-03-01T05:08:13;95076.66;;;5.50;83.57
33191;BME280;19554;42.652;23.364;2023-03-01T05:10:52;95044.31;;;5.26;83.76
33191;BME280;19554;42.652;23.364;2023-03-01T05:13:19;95055.59;;;5.38;83.83
33191;BME280;19554;42.652;23.364;2023-03-01T05:15:59;95070.44;;;5.39;84.11
33191;BME280;19554;42.652;23.364;2023-03-01T05:18:26;95084.38;;;5.52;83.64
33191;BME280;19554;42.652;23.364;2023-03-01T05:20:55;95086.47;;;5.50;83.77
33191;BME280;19554;42.652;23.364;2023-03-01T05:23:23;95053.28;;;5.25;83.80
33191;BME280;19554;42.652;23.364;2023-03-01T05:25:49;95074.34;;;5.54;83.77
33191;BME280;19554;42.652;23.364;2023-03-01T05:28:18;95079.41;;;5.55;83.24
33191;BME280;19554;42.652;23.364;2023-03-01T05:30:44;95056.00;;;5.47;83.20
33191;BME280;19554;42.652;23.364;2023-03-01T05:33:10;95080.06;;;5.67;82.88
33191;BME280;19554;42.652;23.364;2023-03-01T05:35:40;95061.09;;;5.54;82.55
33191;BME280;19554;42.652;23.364;2023-03-01T05:38:06;95078.78;;;5.70;82.28
33191;BME280;19554;42.652;23.364;2023-03-01T05:40:33;95077.50;;;5.51;82.73
33191;BME280;19554;42.652;23.364;2023-03-01T05:42:59;95085.97;;;5.53;82.92
33191;BME280;19554;42.652;23.364;2023-03-01T05:45:26;95084.38;;;5.52;83.11
33191;BME280;19554;42.652;23.364;2023-03-01T05:47:52;95070.75;;;5.43;82.48
33191;BME280;19554;42.652;23.364;2023-03-01T05:50:26;95085.00;;;5.59;82.55
33191;BME280;19554;42.652;23.364;2023-03-01T05:52:58;95092.03;;;5.70;82.34
33191;BME280;19554;42.652;23.364;2023-03-01T05:55:23;95089.47;;;5.75;81.63
33191;BME280;19554;42.652;23.364;2023-03-01T05:57:49;95092.34;;;5.74;81.43
33191;BME280;19554;42.652;23.364;2023-03-01T06:00:17;95064.78;;;5.53;81.23
33191;BME280;19554;42.652;23.364;2023-03-01T06:02:43;95097.13;;;5.55;82.20
33191;BME280;19554;42.652;23.364;2023-03-01T06:05:10;95010.69;;;4.88;82.50
33191;BME280;19554;42.652;23.364;2023-03-01T06:07:36;95104.38;;;5.42;83.23
33191;BME280;19554;42.652;23.364;2023-03-01T06:10:03;95101.41;;;5.22;83.37
33191;BME280;19554;42.652;23.364;2023-03-01T06:12:33;95106.69;;;5.39;83.75
33191;BME280;19554;42.652;23.364;2023-03-01T06:14:59;95092.50;;;5.28;83.63
33191;BME280;19554;42.652;23.364;2023-03-01T06:17:25;95009.81;;;4.82;82.97
33191;BME280;19554;42.652;23.364;2023-03-01T06:19:51;95107.00;;;5.42;82.90
33191;BME280;19554;42.652;23.364;2023-03-01T06:22:16;95074.03;;;5.33;82.82
33191;BME280;19554;42.652;23.364;2023-03-01T06:24:42;95088.56;;;5.47;82.11
33191;BME280;19554;42.652;23.364;2023-03-01T06:27:07;95116.44;;;5.72;82.17
33191;BME280;19554;42.652;23.364;2023-03-01T06:29:33;95121.03;;;5.60;81.80
33191;BME280;19554;42.652;23.364;2023-03-01T06:31:58;95106.97;;;5.59;82.41
33191;BME280;19554;42.652;23.364;2023-03-01T06:34:24;95082.47;;;5.47;82.11
33191;BME280;19554;42.652;23.364;2023-03-01T06:36:49;95106.34;;;5.69;82.32
33191;BME280;19554;42.652;23.364;2023-03-01T06:39:14;95083.41;;;5.58;82.13
33191;BME280;19554;42.652;23.364;2023-03-01T06:41:41;95065.63;;;5.36;81.97
33191;BME280;19554;42.652;23.364;2023-03-01T06:44:07;95104.44;;;5.64;82.24
33191;BME280;19554;42.652;23.364;2023-03-01T06:46:32;95121.94;;;5.49;82.49
33191;BME280;19554;42.652;23.364;2023-03-01T06:48:58;95125.06;;;5.45;82.96
33191;BME280;19554;42.652;23.364;2023-03-01T06:51:23;95115.69;;;5.38;83.68
33191;BME280;19554;42.652;23.364;2023-03-01T06:53:48;95114.78;;;5.49;83.46
33191;BME280;19554;42.652;23.364;2023-03-01T06:56:14;95112.94;;;5.50;83.10
33191;BME280;19554;42.652;23.364;2023-03-01T06:58:39;95116.47;;;5.38;83.45
33191;BME280;19554;42.652;23.364;2023-03-01T07:01:08;95112.16;;;5.32;83.71
33191;BME280;19554;42.652;23.364;2023-03-01T07:03:34;95120.66;;;5.51;83.56
33191;BME280;19554;42.652;23.364;2023-03-01T07:06:00;95103.16;;;5.33;83.10
33191;BME280;19554;42.652;23.364;2023-03-01T07:08:25;95132.03;;;5.52;83.11
33191;BME280;19554;42.652;23.364;2023-03-01T07:10:58;95125.47;;;5.37;83.26
33191;BME280;19554;42.652;23.364;2023-03-01T07:13:24;95122.19;;;5.47;83.45
33191;BME280;19554;42.652;23.364;2023-03-01T07:15:50;95117.09;;;5.62;82.94
33191;BME280;19554;42.652;23.364;2023-03-01T07:18:15;95081.47;;;5.53;82.04
33191;BME280;19554;42.652;23.364;2023-03-01T07:20:41;95127.09;;;5.77;81.49
33191;BME280;19554;42.652;23.364;2023-03-01T07:23:06;95086.53;;;5.55;82.21
33191;BME280;19554;42.652;23.364;2023-03-01T07:25:32;95083.59;;;5.51;81.64
33191;BME280;19554;42.652;23.364;2023-03-01T07:27:58;95117.72;;;5.69;82.18
33191;BME280;19554;42.652;23.364;2023-03-01T07:30:23;95111.47;;;5.59;82.17
33191;BME280;19554;42.652;23.364;2023-03-01T07:32:51;95089.69;;;5.52;81.74
33191;BME280;19554;42.652;23.364;2023-03-01T07:35:17;95075.88;;;5.50;81.21
33191;BME280;19554;42.652;23.364;2023-03-01T07:37:42;95110.66;;;5.75;81.29
33191;BME280;19554;42.652;23.364;2023-03-01T07:40:08;95088.41;;;5.76;80.99
33191;BME280;19554;42.652;23.364;2023-03-01T07:42:33;95071.81;;;5.64;80.61
33191;BME280;19554;42.652;23.364;2023-03-01T07:44:59;95116.09;;;5.85;81.09
33191;BME280;19554;42.652;23.364;2023-03-01T07:47:24;95104.25;;;5.71;81.10
33191;BME280;19554;42.652;23.364;2023-03-01T07:49:50;95095.44;;;5.65;81.06
33191;BME280;19554;42.652;23.364;2023-03-01T07:52:15;95078.59;;;5.55;81.26
33191;BME280;19554;42.652;23.364;2023-03-01T07:54:42;95087.50;;;5.87;81.20
33191;BME280;19554;42.652;23.364;2023-03-01T07:57:09;95095.06;;;5.96;80.40
33191;BME280;19554;42.652;23.364;2023-03-01T07:59:35;95086.88;;;5.80;80.52
33191;BME280;19554;42.652;23.364;2023-03-01T08:02:00;95091.66;;;6.00;80.26
33191;BME280;19554;42.652;23.364;2023-03-01T08:04:26;95073.38;;;5.99;79.81
33191;BME280;19554;42.652;23.364;2023-03-01T08:06:52;95092.16;;;6.19;79.47
33191;BME280;19554;42.652;23.364;2023-03-01T08:09:17;95084.22;;;6.19;79.46
33191;BME280;19554;42.652;23.364;2023-03-01T08:11:43;95081.50;;;6.14;79.27
33191;BME280;19554;42.652;23.364;2023-03-01T08:14:08;95071.00;;;6.24;78.32
33191;BME280;19554;42.652;23.364;2023-03-01T08:16:35;95076.91;;;6.31;77.36
33191;BME280;19554;42.652;23.364;2023-03-01T08:19:06;95052.09;;;6.15;77.65
33191;BME280;19554;42.652;23.364;2023-03-01T08:21:31;95097.50;;;6.24;77.84
33191;BME280;19554;42.652;23.364;2023-03-01T08:23:57;95048.28;;;6.06;77.49
33191;BME280;19554;42.652;23.364;2023-03-01T08:26:22;95083.81;;;6.32;77.10
33191;BME280;19554;42.652;23.364;2023-03-01T08:28:49;95092.66;;;6.16;76.88
33191;BME280;19554;42.652;23.364;2023-03-01T08:31:17;95093.69;;;6.15;76.90
33191;BME280;19554;42.652;23.364;2023-03-01T08:33:43;95085.06;;;6.03;76.99
33191;BME280;19554;42.652;23.364;2023-03-01T08:36:08;95082.59;;;6.18;77.02
33191;BME280;19554;42.652;23.364;2023-03-01T08:38:34;95067.63;;;6.07;76.68
33191;BME280;19554;42.652;23.364;2023-03-01T08:41:01;95090.84;;;6.22;75.97
33191;BME280;19554;42.652;23.364;2023-03-01T08:43:27;95065.59;;;6.14;75.94
33191;BME280;19554;42.652;23.364;2023-03-01T08:45:53;95077.78;;;6.15;75.67
33191;BME280;19554;42.652;23.364;2023-03-01T08:48:18;95066.03;;;6.06;75.82
33191;BME280;19554;42.652;23.364;2023-03-01T08:50:44;95044.16;;;5.93;75.63
33191;BME280;19554;42.652;23.364;2023-03-01T08:53:09;95084.75;;;6.21;75.76
33191;BME280;19554;42.652;23.364;2023-03-01T08:55:34;95092.09;;;6.14;76.09
33191;BME280;19554;42.652;23.364;2023-03-01T08:58:00;95101.22;;;6.23;76.05
33191;BME280;19554;42.652;23.364;2023-03-01T09:00:25;95066.16;;;6.16;75.51
33191;BME280;19554;42.652;23.364;2023-03-01T09:02:51;95068.56;;;5.96;75.44
33191;BME280;19554;42.652;23.364;2023-03-01T09:05:16;95055.53;;;5.94;75.53
33191;BME280;19554;42.652;23.364;2023-03-01T09:07:42;95085.53;;;6.22;75.83
33191;BME280;19554;42.652;23.364;2023-03-01T09:10:07;95090.91;;;6.27;75.17
33191;BME280;19554;42.652;23.364;2023-03-01T09:12:33;95083.47;;;6.24;75.21
33191;BME280;19554;42.652;23.364;2023-03-01T09:14:59;95091.59;;;6.17;75.66
33191;BME280;19554;42.652;23.364;2023-03-01T09:17:24;95072.13;;;6.06;75.62
33191;BME280;19554;42.652;23.364;2023-03-01T09:19:50;95072.38;;;6.05;75.56
33191;BME280;19554;42.652;23.364;2023-03-01T09:22:15;95061.38;;;6.18;75.64
33191;BME280;19554;42.652;23.364;2023-03-01T09:24:40;95074.94;;;6.44;74.98
33191;BME280;19554;42.652;23.364;2023-03-01T09:27:06;95077.63;;;6.49;74.99
33191;BME280;19554;42.652;23.364;2023-03-01T09:29:35;95052.09;;;6.43;74.82
33191;BME280;19554;42.652;23.364;2023-03-01T09:32:00;95051.06;;;6.44;74.64
33191;BME280;19554;42.652;23.364;2023-03-01T09:34:26;95066.31;;;6.58;74.60
33191;BME280;19554;42.652;23.364;2023-03-01T09:36:52;95028.59;;;6.24;74.36
33191;BME280;19554;42.652;23.364;2023-03-01T09:39:18;95086.66;;;6.53;74.39
33191;BME280;19554;42.652;23.364;2023-03-01T09:44:30;95028.59;;;6.24;74.60
33191;BME280;19554;42.652;23.364;2023-03-01T09:46:57;95048.13;;;6.40;74.49
33191;BME280;19554;42.652;23.364;2023-03-01T09:49:42;95066.88;;;6.33;75.29
33191;BME280;19554;42.652;23.364;2023-03-01T09:52:30;95065.22;;;6.27;75.78
33191;BME280;19554;42.652;23.364;2023-03-01T09:54:58;95025.19;;;6.02;76.29
33191;BME280;19554;42.652;23.364;2023-03-01T09:57:41;95057.34;;;6.37;75.87
33191;BME280;19554;42.652;23.364;2023-03-01T10:00:30;95055.41;;;6.28;76.37
33191;BME280;19554;42.652;23.364;2023-03-01T10:03:03;95065.88;;;6.39;75.72
33191;BME280;19554;42.652;23.364;2023-03-01T10:05:55;95040.69;;;6.42;75.14
33191;BME280;19554;42.652;23.364;2023-03-01T10:08:43;95039.41;;;6.45;74.68
33191;BME280;19554;42.652;23.364;2023-03-01T10:11:21;95050.91;;;6.28;75.27
33191;BME280;19554;42.652;23.364;2023-03-01T10:16:46;95050.41;;;6.31;75.73
33191;BME280;19554;42.652;23.364;2023-03-01T10:19:33;95061.78;;;6.32;75.49
33191;BME280;19554;42.652;23.364;2023-03-01T10:22:10;95047.34;;;6.45;75.70
33191;BME280;19554;42.652;23.364;2023-03-01T10:24:37;95039.28;;;6.34;76.10
33191;BME280;19554;42.652;23.364;2023-03-01T10:27:12;95008.88;;;6.15;76.08
33191;BME280;19554;42.652;23.364;2023-03-01T10:29:48;95027.13;;;6.38;75.65
33191;BME280;19554;42.652;23.364;2023-03-01T10:32:16;95018.19;;;6.45;75.36
33191;BME280;19554;42.652;23.364;2023-03-01T10:34:42;95004.91;;;6.39;75.19
33191;BME280;19554;42.652;23.364;2023-03-01T10:37:11;95017.28;;;6.61;75.26
33191;BME280;19554;42.652;23.364;2023-03-01T10:39:36;95030.38;;;6.46;74.82
33191;BME280;19554;42.652;23.364;2023-03-01T10:42:04;95014.28;;;6.52;74.85
33191;BME280;19554;42.652;23.364;2023-03-01T10:44:48;95001.38;;;6.61;74.95
33191;BME280;19554;42.652;23.364;2023-03-01T10:47:24;95008.06;;;6.69;74.04
33191;BME280;19554;42.652;23.364;2023-03-01T10:50:19;94994.16;;;6.56;73.94
33191;BME280;19554;42.652;23.364;2023-03-01T10:52:57;95005.09;;;6.60;74.50
33191;BME280;19554;42.652;23.364;2023-03-01T10:55:27;95008.72;;;6.54;74.92
33191;BME280;19554;42.652;23.364;2023-03-01T11:03:40;94970.75;;;6.80;73.07
33191;BME280;19554;42.652;23.364;2023-03-01T11:06:26;95001.69;;;7.07;72.52
33191;BME280;19554;42.652;23.364;2023-03-01T11:08:51;94994.88;;;7.21;72.34
33191;BME280;19554;42.652;23.364;2023-03-01T11:11:26;94974.63;;;7.05;72.08
33191;BME280;19554;42.652;23.364;2023-03-01T11:13:58;95010.31;;;7.24;72.20
33191;BME280;19554;42.652;23.364;2023-03-01T11:16:34;94987.34;;;7.03;72.02
33191;BME280;19554;42.652;23.364;2023-03-01T11:24:19;95007.13;;;7.27;72.08
33191;BME280;19554;42.652;23.364;2023-03-01T11:26:52;95007.69;;;7.29;71.88
33191;BME280;19554;42.652;23.364;2023-03-01T11:31:52;95003.16;;;7.25;72.55
33191;BME280;19554;42.652;23.364;2023-03-01T11:34:32;94993.56;;;7.19;72.66
33191;BME280;19554;42.652;23.364;2023-03-01T11:37:03;95000.78;;;7.28;72.50
33191;BME280;19554;42.652;23.364;2023-03-01T11:39:39;94973.97;;;7.30;72.12
33191;BME280;19554;42.652;23.364;2023-03-01T11:44:55;94970.97;;;7.16;72.32
33191;BME280;19554;42.652;23.364;2023-03-01T11:50:28;94976.34;;;7.26;72.35
33191;BME280;19554;42.652;23.364;2023-03-01T12:12:26;94957.47;;;7.80;71.03
33191;BME280;19554;42.652;23.364;2023-03-01T12:15:04;94963.84;;;7.79;70.53
33191;BME280;19554;42.652;23.364;2023-03-01T12:26:12;94952.38;;;7.79;70.23
33191;BME280;19554;42.652;23.364;2023-03-01T12:31:24;94952.63;;;7.72;70.21
33191;BME280;19554;42.652;23.364;2023-03-01T12:45:01;94934.78;;;7.57;70.22
33191;BME280;19554;42.652;23.364;2023-03-01T12:50:20;94935.63;;;7.63;70.29
33191;BME280;19554;42.652;23.364;2023-03-01T12:52:56;94943.88;;;7.67;70.32
33191;BME280;19554;42.652;23.364;2023-03-01T12:55:32;94937.72;;;7.61;69.82
33191;BME280;19554;42.652;23.364;2023-03-01T13:01:22;94931.25;;;7.42;71.06
33191;BME280;19554;42.652;23.364;2023-03-01T13:12:50;94935.06;;;7.61;70.49
33191;BME280;19554;42.652;23.364;2023-03-01T13:17:48;94935.06;;;7.61;70.25
33191;BME280;19554;42.652;23.364;2023-03-01T13:20:17;94893.00;;;7.38;69.89
33191;BME280;19554;42.652;23.364;2023-03-01T13:22:45;94935.13;;;7.76;69.81
33191;BME280;19554;42.652;23.364;2023-03-01T13:25:16;94938.81;;;7.70;69.93
33191;BME280;19554;42.652;23.364;2023-03-01T13:27:44;94873.28;;;7.13;70.57
33191;BME280;19554;42.652;23.364;2023-03-01T13:35:52;94918.81;;;7.47;70.79
33191;BME280;19554;42.652;23.364;2023-03-01T13:46:56;94924.69;;;7.54;71.58
33191;BME280;19554;42.652;23.364;2023-03-01T13:49:27;94930.78;;;7.50;71.41
33191;BME280;19554;42.652;23.364;2023-03-01T13:51:53;94929.47;;;7.57;71.67
33191;BME280;19554;42.652;23.364;2023-03-01T13:54:27;94936.66;;;7.62;71.48
33191;BME280;19554;42.652;23.364;2023-03-01T13:56:55;94930.78;;;7.55;71.61
33191;BME280;19554;42.652;23.364;2023-03-01T13:59:22;94929.16;;;7.44;71.46
33191;BME280;19554;42.652;23.364;2023-03-01T14:01:58;94921.00;;;7.60;71.64
33191;BME280;19554;42.652;23.364;2023-03-01T14:06:50;94928.72;;;7.67;71.31
33191;BME280;19554;42.652;23.364;2023-03-01T14:09:17;94925.53;;;7.75;71.12
33191;BME280;19554;42.652;23.364;2023-03-01T14:17:24;94919.09;;;7.51;71.96
33191;BME280;19554;42.652;23.364;2023-03-01T14:20:01;94842.97;;;6.99;72.10
33191;BME280;19554;42.652;23.364;2023-03-01T14:22:34;94924.41;;;7.46;72.23
33191;BME280;19554;42.652;23.364;2023-03-01T14:25:16;94913.50;;;7.42;72.52
33191;BME280;19554;42.652;23.364;2023-03-01T14:27:43;94937.16;;;7.54;71.94
33191;BME280;19554;42.652;23.364;2023-03-01T14:30:40;94937.16;;;7.49;71.89
33191;BME280;19554;42.652;23.364;2023-03-01T14:35:55;94901.97;;;7.16;72.84
33191;BME280;19554;42.652;23.364;2023-03-01T14:38:43;94858.88;;;6.99;73.18
33191;BME280;19554;42.652;23.364;2023-03-01T14:41:14;94915.59;;;7.45;72.75
33191;BME280;19554;42.652;23.364;2023-03-01T14:44:06;94912.72;;;7.52;72.90
33191;BME280;19554;42.652;23.364;2023-03-01T14:46:39;94916.47;;;7.56;72.64
33191;BME280;19554;42.652;23.364;2023-03-01T14:49:15;94930.81;;;7.60;73.21
33191;BME280;19554;42.652;23.364;2023-03-01T14:51:49;94920.13;;;7.45;74.36
33191;BME280;19554;42.652;23.364;2023-03-01T14:54:41;94922.22;;;7.38;74.80
33191;BME280;19554;42.652;23.364;2023-03-01T14:57:21;94928.50;;;7.21;75.54
33191;BME280;19554;42.652;23.364;2023-03-01T14:59:47;94916.25;;;7.05;76.79
33191;BME280;19554;42.652;23.364;2023-03-01T15:02:18;94914.66;;;7.09;75.51
33191;BME280;19554;42.652;23.364;2023-03-01T15:04:47;94908.28;;;7.10;75.68
33191;BME280;19554;42.652;23.364;2023-03-01T15:07:14;94908.81;;;7.07;75.54
33191;BME280;19554;42.652;23.364;2023-03-01T15:09:40;94908.84;;;7.17;75.05
33191;BME280;19554;42.652;23.364;2023-03-01T15:12:31;94908.28;;;7.05;75.19